Time;durP1;ratioP1;P1;durP2;ratioP2;P2;SDS_P1;SDS_P2;PMS_P1;PMS_P2;Temp;Humidity;BMP_temperature;BMP_pressure;BME280_temperature;BME280_humidity;BME280_pressure;Samples;Min_cycle;Max_cycle;Signal;HPM_P1;HPM_P2
2022/05/19 00:01:54;;;;;;;;;8.67;8.67;19.90;28.90;;;;;;4975583;28;8774;-78
2022/05/19 00:04:20;;;;;;;;;9.00;9.00;19.90;30.00;;;;;;4975531;28;8884;-78
2022/05/19 00:06:46;;;;;;;;;10.00;10.00;19.80;30.80;;;;;;4975497;28;9566;-78
2022/05/19 00:09:13;;;;;;;;;9.00;9.00;20.10;30.90;;;;;;4974692;28;8952;-78
2022/05/19 00:11:41;;;;;;;;;9.00;9.00;20.20;30.60;;;;;;4959333;28;8788;-79
2022/05/19 00:14:07;;;;;;;;;8.00;8.00;20.30;30.40;;;;;;4974987;28;8887;-78
2022/05/19 00:16:33;;;;;;;;;7.00;7.00;20.30;30.60;;;;;;4962609;28;8819;-78
2022/05/19 00:18:59;;;;;;;;;4.00;4.00;20.30;30.00;;;;;;4956381;28;8784;-80
2022/05/19 00:21:25;;;;;;;;;4.67;4.67;20.30;30.40;;;;;;4956332;28;8822;-78
2022/05/19 00:23:51;;;;;;;;;5.00;5.00;20.20;30.70;;;;;;4956398;29;8824;-76
2022/05/19 00:26:17;;;;;;;;;5.33;5.33;19.70;31.50;;;;;;4956009;28;8808;-78
2022/05/19 00:28:43;;;;;;;;;6.33;6.33;19.70;32.00;;;;;;4971083;28;8792;-78
2022/05/19 00:31:09;;;;;;;;;7.67;7.67;19.80;31.20;;;;;;4955922;28;8807;-77
2022/05/19 00:33:35;;;;;;;;;8.00;8.00;19.70;30.80;;;;;;4955766;28;8836;-77
2022/05/19 00:36:15;;;;;;;;;7.00;7.00;19.50;30.80;;;;;;4956233;29;8792;-78
2022/05/19 00:38:42;;;;;;;;;6.00;6.00;19.60;31.00;;;;;;4956003;29;8769;-78
2022/05/19 00:41:09;;;;;;;;;4.00;4.00;19.80;30.60;;;;;;4954945;29;8784;-78
2022/05/19 00:43:40;;;;;;;;;6.00;6.00;19.80;30.80;;;;;;4955820;28;8944;-78
2022/05/19 00:46:13;;;;;;;;;5.00;5.00;19.70;31.60;;;;;;4956149;29;8784;-77
2022/05/19 00:49:16;;;;;;;;;5.33;5.33;19.70;31.60;;;;;;4955921;29;8764;-77
2022/05/19 00:52:08;;;;;;;;;2.00;2.00;19.80;31.50;;;;;;4951096;28;8788;-77
2022/05/19 00:54:51;;;;;;;;;8.67;8.67;19.70;31.60;;;;;;4960196;28;8907;-78
2022/05/19 00:57:27;;;;;;;;;6.33;6.33;19.50;31.30;;;;;;4962992;28;8812;-75
2022/05/19 01:00:04;;;;;;;;;10.00;10.00;19.60;31.90;;;;;;4968784;28;8815;-77
2022/05/19 01:02:45;;;;;;;;;7.33;7.33;19.60;32.00;;;;;;4955789;28;8898;-77
2022/05/19 01:05:41;;;;;;;;;8.33;8.33;19.50;32.20;;;;;;4955894;29;8792;-76
2022/05/19 01:08:27;;;;;;;;;8.33;8.33;19.60;31.50;;;;;;4955700;29;8779;-76
2022/05/19 01:10:55;;;;;;;;;8.33;8.33;19.70;30.90;;;;;;4956808;28;8787;-77
2022/05/19 01:13:22;;;;;;;;;9.33;9.33;19.70;30.50;;;;;;4959170;28;8839;-76
2022/05/19 01:15:52;;;;;;;;;11.00;11.00;19.70;30.60;;;;;;4959388;28;8874;-75
2022/05/19 01:18:19;;;;;;;;;10.67;10.67;19.70;31.00;;;;;;4959192;28;8810;-75
2022/05/19 01:20:47;;;;;;;;;10.00;10.00;19.50;31.30;;;;;;4959069;28;8772;-75
2022/05/19 01:23:21;;;;;;;;;9.67;9.67;19.50;31.70;;;;;;4958883;28;8792;-75
2022/05/19 01:26:20;;;;;;;;;8.00;8.00;19.50;31.40;;;;;;4959219;28;8867;-75
2022/05/19 01:28:46;;;;;;;;;7.00;7.00;19.40;31.20;;;;;;4973926;28;8827;-76
2022/05/19 01:31:28;;;;;;;;;4.33;4.33;19.30;31.30;;;;;;4958965;28;8791;-76
2022/05/19 01:33:53;;;;;;;;;7.00;7.00;19.30;31.20;;;;;;4958450;28;8959;-76
2022/05/19 01:36:19;;;;;;;;;6.67;6.67;19.30;31.70;;;;;;4958880;28;8948;-75
2022/05/19 01:38:45;;;;;;;;;6.00;6.00;19.20;31.70;;;;;;4957595;28;8914;-75
2022/05/19 01:41:23;;;;;;;;;8.00;8.00;19.30;31.50;;;;;;4958585;28;8874;-76
2022/05/19 01:44:09;;;;;;;;;10.67;10.67;18.90;31.40;;;;;;4958594;28;8804;-76
2022/05/19 01:46:38;;;;;;;;;7.00;7.00;18.70;32.40;;;;;;4958608;28;8799;-75
2022/05/19 01:49:06;;;;;;;;;10.67;10.67;18.50;32.50;;;;;;4958473;28;9446;-77
2022/05/19 01:51:55;;;;;;;;;6.00;6.00;18.50;33.00;;;;;;4958632;28;8791;-77
2022/05/19 01:54:27;;;;;;;;;8.33;8.33;18.80;33.00;;;;;;4958813;28;9663;-77
2022/05/19 01:57:07;;;;;;;;;9.00;9.00;18.80;32.90;;;;;;4958398;28;8866;-76
2022/05/19 01:59:48;;;;;;;;;10.00;10.00;18.70;32.70;;;;;;4958251;28;8804;-76
2022/05/19 02:02:40;;;;;;;;;10.33;10.33;18.80;32.90;;;;;;4958229;28;8783;-76
2022/05/19 02:05:21;;;;;;;;;10.00;10.00;18.30;33.30;;;;;;4957229;28;8800;-76
2022/05/19 02:07:51;;;;;;;;;10.67;10.67;18.10;34.30;;;;;;4958075;28;8784;-76
2022/05/19 02:10:30;;;;;;;;;10.33;10.33;18.30;34.10;;;;;;4958168;28;8850;-76
2022/05/19 02:12:59;;;;;;;;;11.00;11.00;18.40;33.70;;;;;;4958023;28;8791;-77
2022/05/19 02:15:27;;;;;;;;;9.67;9.67;18.50;34.90;;;;;;4957914;28;8816;-76
2022/05/19 02:17:55;;;;;;;;;9.00;9.00;18.50;34.10;;;;;;4957867;28;8776;-76
2022/05/19 02:20:24;;;;;;;;;10.67;10.67;18.60;34.00;;;;;;4958098;28;9454;-76
2022/05/19 02:22:50;;;;;;;;;9.00;9.00;18.50;33.90;;;;;;4956862;28;8830;-77
2022/05/19 02:25:34;;;;;;;;;11.00;11.00;18.20;34.20;;;;;;4972888;28;8793;-77
2022/05/19 02:28:00;;;;;;;;;9.67;9.00;17.80;34.90;;;;;;4957990;28;9439;-77
2022/05/19 02:30:32;;;;;;;;;7.67;7.67;18.00;34.80;;;;;;4957743;28;8904;-76
2022/05/19 02:32:58;;;;;;;;;8.67;8.67;17.70;34.60;;;;;;4957502;28;8894;-76
2022/05/19 02:35:25;;;;;;;;;9.67;9.67;17.20;35.60;;;;;;4957828;28;8859;-77
2022/05/19 02:37:51;;;;;;;;;8.33;8.33;17.20;36.20;;;;;;4957778;28;8788;-76
2022/05/19 02:40:19;;;;;;;;;9.00;9.00;17.50;35.90;;;;;;4957499;28;8795;-75
2022/05/19 02:42:46;;;;;;;;;9.00;9.00;17.80;35.50;;;;;;4957815;28;8788;-76
2022/05/19 02:45:13;;;;;;;;;9.00;9.00;17.80;35.20;;;;;;4957334;28;8804;-76
2022/05/19 02:47:39;;;;;;;;;11.00;11.00;17.80;34.80;;;;;;4956434;28;8814;-76
2022/05/19 02:50:06;;;;;;;;;9.00;9.00;17.40;34.90;;;;;;4957588;28;8776;-77
2022/05/19 02:52:31;;;;;;;;;10.00;10.00;17.20;35.90;;;;;;4957221;28;8931;-76
2022/05/19 02:54:57;;;;;;;;;4.00;4.00;17.20;35.60;;;;;;4957294;28;8859;-76
2022/05/19 02:57:23;;;;;;;;;8.33;8.33;17.30;36.20;;;;;;4956359;28;8811;-76
2022/05/19 02:59:49;;;;;;;;;5.67;5.67;17.50;36.00;;;;;;4956899;28;8788;-76
2022/05/19 03:02:14;;;;;;;;;8.33;8.33;17.50;35.00;;;;;;4957410;28;8778;-75
2022/05/19 03:04:40;;;;;;;;;11.33;11.33;17.70;34.70;;;;;;4957149;28;9418;-76
2022/05/19 03:07:06;;;;;;;;;9.33;9.33;17.60;34.90;;;;;;4957136;28;8784;-76
2022/05/19 03:09:33;;;;;;;;;8.33;8.33;17.50;35.20;;;;;;4957214;28;8815;-76
2022/05/19 03:11:58;;;;;;;;;9.00;9.00;17.60;35.70;;;;;;4957130;28;8875;-75
2022/05/19 03:14:24;;;;;;;;;4.00;4.00;17.80;35.50;;;;;;4957351;28;8836;-75
2022/05/19 03:16:50;;;;;;;;;6.33;6.33;17.80;35.20;;;;;;4957292;28;8854;-75
2022/05/19 03:19:16;;;;;;;;;6.67;6.67;17.90;34.80;;;;;;4956969;28;8796;-76
2022/05/19 03:21:42;;;;;;;;;8.67;8.67;18.00;34.90;;;;;;4956911;28;8792;-76
2022/05/19 03:24:11;;;;;;;;;8.00;8.00;18.00;35.10;;;;;;4956883;28;8819;-76
2022/05/19 03:26:37;;;;;;;;;10.67;10.00;18.00;35.10;;;;;;4958351;28;8891;-76
2022/05/19 03:29:04;;;;;;;;;7.67;7.67;18.10;34.90;;;;;;4968809;28;8823;-76
2022/05/19 03:31:30;;;;;;;;;8.00;8.00;17.90;35.10;;;;;;4978527;28;8801;-76
2022/05/19 03:33:56;;;;;;;;;7.00;7.00;17.90;35.10;;;;;;4975822;28;8859;-76
2022/05/19 03:36:21;;;;;;;;;9.00;9.00;17.90;34.90;;;;;;4976217;28;8884;-76
2022/05/19 03:38:48;;;;;;;;;9.00;9.00;17.60;35.10;;;;;;4975410;28;9440;-76
2022/05/19 03:41:14;;;;;;;;;11.67;11.33;17.60;35.70;;;;;;4962064;28;8796;-76
2022/05/19 03:43:40;;;;;;;;;9.00;9.00;17.80;35.30;;;;;;4971984;28;9618;-77
2022/05/19 03:46:05;;;;;;;;;8.67;8.00;17.80;34.90;;;;;;4971578;28;8803;-77
2022/05/19 03:48:36;;;;;;;;;8.00;8.00;17.80;35.20;;;;;;4971511;28;8800;-77
2022/05/19 03:51:04;;;;;;;;;11.00;11.00;18.00;34.90;;;;;;4956583;28;9486;-77
2022/05/19 03:53:31;;;;;;;;;11.00;10.33;18.00;35.00;;;;;;4956326;28;8820;-76
2022/05/19 03:55:57;;;;;;;;;8.33;8.33;18.00;34.80;;;;;;4956286;28;8784;-76
2022/05/19 03:58:23;;;;;;;;;9.00;9.00;17.90;34.90;;;;;;4956557;28;8911;-76
2022/05/19 04:00:49;;;;;;;;;9.67;9.67;18.00;34.80;;;;;;4955306;28;9490;-76
2022/05/19 04:03:14;;;;;;;;;8.00;8.00;17.80;34.80;;;;;;4956305;28;8792;-76
2022/05/19 04:05:40;;;;;;;;;8.33;8.33;17.90;35.10;;;;;;4956606;28;8799;-76
2022/05/19 04:08:06;;;;;;;;;8.00;8.00;17.90;35.00;;;;;;4956274;29;8791;-76
2022/05/19 04:10:32;;;;;;;;;7.00;7.00;17.90;34.60;;;;;;4956465;28;9209;-76
2022/05/19 04:12:58;;;;;;;;;7.33;7.33;17.80;35.10;;;;;;4956417;29;8927;-76
2022/05/19 04:15:25;;;;;;;;;9.00;9.00;17.80;34.80;;;;;;4956761;29;8804;-76
2022/05/19 04:17:51;;;;;;;;;7.00;7.00;17.90;34.90;;;;;;4956423;28;8898;-76
2022/05/19 04:20:17;;;;;;;;;1.00;1.00;17.80;34.70;;;;;;4956146;29;9426;-76
2022/05/19 04:22:43;;;;;;;;;8.00;8.00;17.70;35.10;;;;;;4956335;28;8807;-76
2022/05/19 04:25:10;;;;;;;;;7.67;7.67;17.80;34.90;;;;;;4971254;28;8867;-76
2022/05/19 04:27:36;;;;;;;;;9.67;9.67;17.50;34.70;;;;;;4956213;29;8788;-76
2022/05/19 04:30:03;;;;;;;;;9.67;9.67;17.30;35.90;;;;;;4955988;28;8886;-76
2022/05/19 04:32:29;;;;;;;;;9.00;9.00;17.30;35.70;;;;;;4955905;28;8843;-77
2022/05/19 04:34:54;;;;;;;;;9.67;9.67;17.30;36.30;;;;;;4955766;28;9486;-77
2022/05/19 04:37:20;;;;;;;;;10.00;10.00;17.50;36.00;;;;;;4956168;28;8779;-76
2022/05/19 04:39:46;;;;;;;;;10.67;9.33;17.20;36.30;;;;;;4966800;28;8832;-76
2022/05/19 04:42:13;;;;;;;;;9.00;9.00;17.20;36.70;;;;;;4968249;28;9335;-75
2022/05/19 04:44:39;;;;;;;;;9.67;9.67;16.90;37.00;;;;;;4956079;28;8889;-76
2022/05/19 04:47:06;;;;;;;;;10.33;10.33;17.00;37.20;;;;;;4958876;28;8872;-76
2022/05/19 04:49:32;;;;;;;;;10.33;10.33;17.20;37.20;;;;;;4961904;28;9448;-76
2022/05/19 04:51:58;;;;;;;;;8.33;8.33;17.30;36.80;;;;;;4968127;28;8888;-76
2022/05/19 04:54:24;;;;;;;;;8.00;8.00;17.60;36.90;;;;;;4959874;28;8954;-77
2022/05/19 04:56:50;;;;;;;;;8.00;8.00;17.60;37.00;;;;;;4970992;28;8793;-77
2022/05/19 04:59:17;;;;;;;;;11.67;11.67;17.60;36.60;;;;;;4974607;28;8786;-77
2022/05/19 05:01:46;;;;;;;;;6.67;6.67;17.90;36.60;;;;;;4973046;28;8831;-76
2022/05/19 05:04:13;;;;;;;;;8.00;7.00;18.00;36.30;;;;;;4969403;28;8812;-76
2022/05/19 05:06:39;;;;;;;;;8.00;8.00;18.10;36.40;;;;;;4967789;28;8827;-76
2022/05/19 05:09:05;;;;;;;;;7.00;7.00;18.20;36.50;;;;;;4959911;28;8895;-76
2022/05/19 05:11:31;;;;;;;;;7.00;7.00;18.10;35.90;;;;;;4959145;28;8800;-74
2022/05/19 05:13:57;;;;;;;;;9.00;9.00;17.90;36.00;;;;;;4958985;28;8942;-75
2022/05/19 05:16:23;;;;;;;;;9.67;9.67;17.60;36.70;;;;;;4959159;28;9442;-72
2022/05/19 05:18:49;;;;;;;;;8.67;8.67;17.10;38.00;;;;;;4958827;28;8870;-73
2022/05/19 05:21:15;;;;;;;;;9.00;9.00;17.30;38.50;;;;;;4959096;28;8788;-74
2022/05/19 05:23:41;;;;;;;;;7.67;7.67;17.30;38.40;;;;;;4959247;28;9480;-73
2022/05/19 05:26:08;;;;;;;;;8.33;8.33;17.40;37.80;;;;;;4958877;28;8795;-82
2022/05/19 05:28:36;;;;;;;;;8.67;8.67;17.50;37.90;;;;;;4974066;28;8799;-78
2022/05/19 05:31:02;;;;;;;;;7.00;7.00;17.70;37.30;;;;;;4960089;28;8796;-78
2022/05/19 05:33:29;;;;;;;;;10.00;10.00;17.80;37.50;;;;;;4959065;28;8933;-79
2022/05/19 05:35:55;;;;;;;;;8.67;8.67;17.80;37.00;;;;;;4959028;28;8796;-75
2022/05/19 05:38:21;;;;;;;;;6.00;6.00;17.70;38.10;;;;;;4959047;28;8788;-74
2022/05/19 05:40:50;;;;;;;;;6.67;6.67;18.00;37.60;;;;;;4958676;28;8784;-77
2022/05/19 05:43:18;;;;;;;;;10.67;9.67;17.50;37.20;;;;;;4958755;28;9520;-85
2022/05/19 05:45:45;;;;;;;;;6.00;6.00;17.50;38.20;;;;;;4958632;28;8800;-83
2022/05/19 05:48:12;;;;;;;;;6.00;6.00;17.10;39.00;;;;;;4958752;28;8776;-83
2022/05/19 05:50:38;;;;;;;;;7.00;7.00;17.70;38.50;;;;;;4958653;28;9507;-83
2022/05/19 05:53:05;;;;;;;;;7.00;7.00;18.10;39.00;;;;;;4958590;28;8863;-78
2022/05/19 05:55:32;;;;;;;;;5.33;5.33;18.40;37.10;;;;;;4958486;28;8863;-77
2022/05/19 05:57:58;;;;;;;;;4.33;4.33;18.60;36.70;;;;;;4958290;28;8788;-81
2022/05/19 06:00:24;;;;;;;;;5.33;5.33;18.70;36.30;;;;;;4973187;28;9517;-77
2022/05/19 06:02:50;;;;;;;;;5.00;5.00;18.70;36.60;;;;;;4958231;28;8883;-81
2022/05/19 06:05:19;;;;;;;;;4.67;4.67;18.90;36.20;;;;;;4958256;28;8776;-81
2022/05/19 06:07:45;;;;;;;;;6.00;6.00;18.70;36.80;;;;;;4958087;28;8804;-82
2022/05/19 06:10:12;;;;;;;;;6.00;6.00;19.10;36.40;;;;;;4958065;28;8776;-79
2022/05/19 06:12:39;;;;;;;;;4.33;4.33;19.40;35.20;;;;;;4958000;28;8840;-79
2022/05/19 06:15:05;;;;;;;;;5.00;5.00;19.60;34.30;;;;;;4958420;28;8832;-79
2022/05/19 06:17:32;;;;;;;;;4.33;4.33;19.60;33.40;;;;;;4959579;28;8772;-82
2022/05/19 06:19:58;;;;;;;;;4.00;4.00;19.10;33.10;;;;;;4958320;28;8765;-83
2022/05/19 06:22:23;;;;;;;;;5.00;5.00;18.60;34.70;;;;;;4957915;28;8777;-77
2022/05/19 06:24:50;;;;;;;;;6.00;6.00;19.00;34.40;;;;;;4957939;28;8798;-76
2022/05/19 06:27:16;;;;;;;;;3.00;3.00;19.40;33.60;;;;;;4957798;28;8753;-77
2022/05/19 06:29:42;;;;;;;;;3.67;3.67;19.60;32.90;;;;;;4957664;28;8807;-76
2022/05/19 06:32:08;;;;;;;;;3.33;3.33;19.80;32.20;;;;;;4957547;28;8784;-76
2022/05/19 06:34:35;;;;;;;;;3.00;3.00;19.60;32.60;;;;;;4957598;28;9459;-76
2022/05/19 06:37:02;;;;;;;;;4.33;3.00;19.80;33.00;;;;;;4957547;28;8788;-77
2022/05/19 06:39:28;;;;;;;;;4.00;4.00;20.00;32.60;;;;;;4957826;28;8780;-75
2022/05/19 06:42:00;;;;;;;;;4.67;4.67;20.30;32.70;;;;;;4957355;28;8799;-76
2022/05/19 06:44:31;;;;;;;;;3.33;3.33;20.40;32.00;;;;;;4957706;28;8839;-76
2022/05/19 06:46:57;;;;;;;;;3.33;3.33;20.40;31.80;;;;;;4957728;28;9394;-77
2022/05/19 06:49:24;;;;;;;;;4.00;4.00;20.60;30.40;;;;;;4957383;28;8808;-76
2022/05/19 06:51:50;;;;;;;;;3.67;3.67;20.70;30.50;;;;;;4957585;28;8866;-76
2022/05/19 06:54:15;;;;;;;;;7.67;7.67;20.60;29.60;;;;;;4957412;28;9423;-77
2022/05/19 06:56:41;;;;;;;;;4.33;4.33;20.50;30.10;;;;;;4956534;28;8819;-76
2022/05/19 06:59:07;;;;;;;;;3.00;3.00;20.50;29.60;;;;;;4957168;28;9394;-76
2022/05/19 07:01:34;;;;;;;;;3.33;3.33;20.10;30.30;;;;;;4957279;28;8796;-77
2022/05/19 07:04:00;;;;;;;;;4.00;4.00;20.30;30.40;;;;;;4972209;28;8811;-76
2022/05/19 07:06:26;;;;;;;;;5.00;5.00;20.70;30.00;;;;;;4957273;28;8819;-76
2022/05/19 07:08:52;;;;;;;;;3.00;3.00;20.50;30.00;;;;;;4956822;28;8780;-76
2022/05/19 07:11:27;;;;;;;;;3.00;3.00;20.40;30.20;;;;;;4957181;28;8795;-77
2022/05/19 07:14:05;;;;;;;;;2.00;2.00;20.50;29.90;;;;;;4956981;28;8864;-77
2022/05/19 07:16:31;;;;;;;;;3.00;3.00;20.70;30.00;;;;;;4956881;28;8845;-75
2022/05/19 07:21:44;;;;;;;;;3.00;3.00;21.00;29.70;;;;;;4956936;28;8776;-77
2022/05/19 07:24:18;;;;;;;;;4.00;4.00;20.80;29.40;;;;;;4957055;28;8862;-77
2022/05/19 07:26:48;;;;;;;;;5.33;5.33;21.00;29.20;;;;;;4957032;28;9390;-76
2022/05/19 07:29:15;;;;;;;;;4.00;4.00;21.30;28.90;;;;;;4956758;28;8781;-77
2022/05/19 07:31:41;;;;;;;;;2.00;2.00;21.40;29.60;;;;;;4956576;28;8787;-76
2022/05/19 07:34:09;;;;;;;;;4.00;4.00;21.60;29.60;;;;;;4956062;28;8832;-77
2022/05/19 07:36:34;;;;;;;;;6.00;6.00;21.70;29.30;;;;;;4955829;28;8768;-76
2022/05/19 07:39:01;;;;;;;;;5.00;5.00;21.70;29.20;;;;;;4955765;28;8874;-77
2022/05/19 07:41:28;;;;;;;;;4.00;4.00;21.70;29.30;;;;;;4955974;28;8787;-76
2022/05/19 07:43:53;;;;;;;;;4.00;4.00;21.80;29.10;;;;;;4955938;28;9467;-76
2022/05/19 07:46:19;;;;;;;;;9.33;9.33;21.80;28.90;;;;;;4954251;28;8792;-77
2022/05/19 07:48:46;;;;;;;;;1.67;1.67;22.00;28.80;;;;;;4955671;28;8822;-76
2022/05/19 07:51:12;;;;;;;;;7.67;7.67;22.00;27.60;;;;;;4955614;28;8810;-76
2022/05/19 07:53:38;;;;;;;;;3.00;3.00;22.20;27.60;;;;;;4955494;28;9443;-76
2022/05/19 07:56:04;;;;;;;;;3.33;3.33;22.20;27.40;;;;;;4955632;28;8791;-77
2022/05/19 07:58:30;;;;;;;;;3.33;3.33;22.20;26.80;;;;;;4955870;28;8776;-77
2022/05/19 08:00:58;;;;;;;;;3.00;3.00;22.00;26.40;;;;;;4955793;28;8810;-77
2022/05/19 08:03:24;;;;;;;;;5.00;5.00;21.90;26.30;;;;;;4970493;28;8784;-77
2022/05/19 08:05:51;;;;;;;;;4.33;4.33;22.20;26.40;;;;;;4955751;28;8871;-77
2022/05/19 08:08:17;;;;;;;;;3.00;3.00;22.00;27.30;;;;;;4955680;28;9458;-76
2022/05/19 08:10:44;;;;;;;;;5.67;5.67;22.20;26.80;;;;;;4955492;28;8784;-77
2022/05/19 08:15:54;;;;;;;;;4.00;4.00;22.30;26.70;;;;;;4955461;29;8756;-76
2022/05/19 08:18:22;;;;;;;;;3.00;3.00;22.50;26.80;;;;;;4955425;28;8807;-76
2022/05/19 08:20:54;;;;;;;;;4.00;4.00;22.70;26.90;;;;;;4956249;28;8765;-77
2022/05/19 08:23:33;;;;;;;;;3.00;3.00;22.70;26.70;;;;;;4958164;28;8795;-78
2022/05/19 08:26:00;;;;;;;;;2.00;2.00;22.80;25.70;;;;;;4958632;28;8760;-77
2022/05/19 08:28:31;;;;;;;;;4.00;4.00;22.90;25.90;;;;;;4958609;28;8807;-77
2022/05/19 08:31:02;;;;;;;;;3.00;3.00;22.80;24.50;;;;;;4958524;28;8858;-76
2022/05/19 08:33:29;;;;;;;;;3.33;3.33;23.00;24.40;;;;;;4918003;28;1184115;-76
2022/05/19 08:35:55;;;;;;;;;2.67;2.67;23.10;24.80;;;;;;4959835;28;8764;-77
2022/05/19 08:38:22;;;;;;;;;5.00;5.00;23.10;24.80;;;;;;4959779;28;8779;-76
2022/05/19 08:40:55;;;;;;;;;3.00;3.00;23.20;25.70;;;;;;4959966;28;9457;-77
2022/05/19 08:43:25;;;;;;;;;4.00;4.00;23.20;25.10;;;;;;4959676;28;8780;-76
2022/05/19 08:45:55;;;;;;;;;3.00;3.00;23.10;25.00;;;;;;4959924;28;8784;-76
2022/05/19 08:48:25;;;;;;;;;4.00;4.00;23.20;25.00;;;;;;4959684;28;9488;-76
2022/05/19 08:51:01;;;;;;;;;10.33;10.33;23.40;25.50;;;;;;4959460;28;8863;-76
2022/05/19 08:53:36;;;;;;;;;6.00;6.00;23.50;25.20;;;;;;4959211;28;8819;-76
2022/05/19 08:56:12;;;;;;;;;1.33;1.33;23.70;25.40;;;;;;4974499;28;8792;-76
2022/05/19 08:59:06;;;;;;;;;3.00;3.00;23.80;25.70;;;;;;4959308;28;8783;-76
2022/05/19 09:01:46;;;;;;;;;3.00;3.00;23.90;24.70;;;;;;4957063;28;8780;-76
2022/05/19 09:04:24;;;;;;;;;3.00;3.00;24.00;24.20;;;;;;4959534;28;8811;-76
2022/05/19 09:10:38;;;;;;;;;2.00;2.00;24.20;24.30;;;;;;4959155;28;8883;-76
2022/05/19 09:13:23;;;;;;;;;3.00;3.00;24.20;25.40;;;;;;4956458;28;8811;-77
2022/05/19 09:15:50;;;;;;;;;1.00;1.00;24.30;24.30;;;;;;4959303;28;11516;-77
2022/05/19 09:18:20;;;;;;;;;2.00;2.00;24.30;23.70;;;;;;4959208;28;11513;-77
2022/05/19 09:20:54;;;;;;;;;3.67;3.67;24.50;24.60;;;;;;4959058;28;11555;-77
2022/05/19 09:23:20;;;;;;;;;5.67;5.67;24.60;24.10;;;;;;4958934;28;11639;-77
2022/05/19 09:25:51;;;;;;;;;3.00;3.00;24.90;24.60;;;;;;4958772;28;11501;-77
2022/05/19 09:28:18;;;;;;;;;4.00;3.00;25.10;23.00;;;;;;4959054;28;11507;-76
2022/05/19 09:30:51;;;;;;;;;3.00;3.00;25.20;22.80;;;;;;4958675;28;11531;-76
2022/05/19 09:33:37;;;;;;;;;4.33;4.00;25.20;22.10;;;;;;4957162;28;11548;-76
2022/05/19 09:36:12;;;;;;;;;4.00;4.00;25.40;22.40;;;;;;4973675;28;11546;-76
2022/05/19 09:38:45;;;;;;;;;8.00;8.00;25.60;22.60;;;;;;4958406;28;8796;-79
2022/05/19 09:41:28;;;;;;;;;3.00;3.00;25.50;22.50;;;;;;4958390;28;12217;-77
2022/05/19 09:43:58;;;;;;;;;2.00;2.00;25.60;24.70;;;;;;4958090;28;11540;-76
2022/05/19 09:46:31;;;;;;;;;4.00;4.00;25.70;24.20;;;;;;4958267;28;11567;-76
2022/05/19 09:49:02;;;;;;;;;4.00;4.00;26.00;24.00;;;;;;4958141;28;11509;-76
2022/05/19 09:51:40;;;;;;;;;4.00;3.33;26.00;22.80;;;;;;4958203;28;11516;-77
2022/05/19 09:54:06;;;;;;;;;5.67;5.67;26.10;23.00;;;;;;4958509;28;12171;-76
2022/05/19 09:56:37;;;;;;;;;11.00;10.00;26.20;23.40;;;;;;4957965;28;11530;-77
2022/05/19 09:59:36;;;;;;;;;5.00;5.00;26.50;21.70;;;;;;4958230;28;8788;-77
2022/05/19 10:02:41;;;;;;;;;2.00;2.00;26.70;22.00;;;;;;4957896;28;11510;-78
2022/05/19 10:05:32;;;;;;;;;3.00;3.00;26.60;23.10;;;;;;4936570;29;11631;-77
2022/05/19 10:08:05;;;;;;;;;4.00;4.00;26.70;23.40;;;;;;4936888;29;11551;-76
2022/05/19 10:10:41;;;;;;;;;3.00;3.00;27.00;22.20;;;;;;4936798;29;11540;-76
2022/05/19 10:13:12;;;;;;;;;2.75;2.75;27.00;21.70;;;;;;4936671;29;12263;-77
2022/05/19 10:15:53;;;;;;;;;4.00;4.00;27.20;21.60;;;;;;4936647;29;11544;-77
2022/05/19 10:18:36;;;;;;;;;1.25;0.75;27.30;21.90;;;;;;4936646;29;11546;-78
2022/05/19 10:21:18;;;;;;;;;6.50;4.00;27.60;21.30;;;;;;4936601;29;11732;-77
2022/05/19 10:24:10;;;;;;;;;1.75;1.75;27.60;21.20;;;;;;4936602;29;11546;-76
2022/05/19 10:31:02;;;;;;;;;1.25;1.25;27.80;22.20;;;;;;4936367;29;11540;-76
2022/05/19 10:33:00;;;;;;;;;3.00;3.00;27.60;20.80;;;;;;4936262;29;12210;-77
2022/05/19 10:35:58;;;;;;;;;4.00;4.00;27.50;20.40;;;;;;4936285;29;11554;-76
2022/05/19 10:38:45;;;;;;;;;4.75;4.75;27.30;20.80;;;;;;4913298;29;12228;-77
2022/05/19 10:41:31;;;;;;;;;3.00;3.00;27.40;20.40;;;;;;4943877;28;11502;-78
2022/05/19 10:44:08;;;;;;;;;7.00;6.00;27.90;20.20;;;;;;4971692;28;11566;-76
2022/05/19 10:46:54;;;;;;;;;4.00;4.00;27.80;19.80;;;;;;4957624;28;11525;-76
2022/05/19 10:49:44;;;;;;;;;3.00;3.00;27.90;20.50;;;;;;4957383;28;11485;-77
2022/05/19 10:52:36;;;;;;;;;3.00;3.00;28.50;18.90;;;;;;4957260;28;11590;-76
2022/05/19 10:55:40;;;;;;;;;3.50;3.50;29.00;19.00;;;;;;4956031;28;11537;-76
2022/05/19 10:58:17;;;;;;;;;3.50;3.50;29.00;19.20;;;;;;4957506;28;12086;-76
2022/05/19 11:01:24;;;;;;;;;6.00;4.50;29.10;19.10;;;;;;4957073;28;11642;-76
2022/05/19 11:03:58;;;;;;;;;2.00;2.00;29.40;19.40;;;;;;4935753;29;11573;-77
2022/05/19 11:06:52;;;;;;;;;3.67;3.67;29.50;19.00;;;;;;4951844;28;11530;-77
2022/05/19 11:09:49;;;;;;;;;2.75;2.75;29.80;20.20;;;;;;4956974;28;11525;-77
2022/05/19 11:12:52;;;;;;;;;2.75;2.75;30.20;18.70;;;;;;4956903;28;11504;-77
2022/05/19 11:15:45;;;;;;;;;3.00;3.00;30.10;20.00;;;;;;4972132;28;11559;-77
2022/05/19 11:18:15;;;;;;;;;3.00;3.00;30.70;21.10;;;;;;4956652;28;11588;-76
2022/05/19 11:21:00;;;;;;;;;1.75;1.75;31.00;19.50;;;;;;4956899;28;11589;-77
2022/05/19 11:23:53;;;;;;;;;2.50;2.50;31.40;18.90;;;;;;4956644;28;11494;-77
2022/05/19 11:26:44;;;;;;;;;2.00;2.00;31.60;18.50;;;;;;4956931;28;11491;-77
2022/05/19 11:29:23;;;;;;;;;2.25;2.25;31.30;16.80;;;;;;4971637;28;11517;-77
2022/05/19 11:32:07;;;;;;;;;3.00;3.00;31.40;17.80;;;;;;4956515;28;11528;-77
2022/05/19 11:34:38;;;;;;;;;3.25;3.25;31.50;17.10;;;;;;4957157;28;11547;-77
2022/05/19 11:37:29;;;;;;;;;2.75;2.75;31.10;17.60;;;;;;4957882;28;11520;-76
2022/05/19 11:40:01;;;;;;;;;4.00;4.00;31.50;17.50;;;;;;4947317;28;11506;-77
2022/05/19 11:42:50;;;;;;;;;2.75;2.75;33.00;18.90;;;;;;4956612;28;11517;-78
2022/05/19 11:45:32;;;;;;;;;3.00;3.00;39.00;16.40;;;;;;4953159;28;11563;-79
2022/05/19 11:57:24;;;;;;;;;3.00;3.00;60.20;9.80;;;;;;4941479;28;11479;-79
2022/05/19 11:59:55;;;;;;;;;2.50;2.50;61.80;9.20;;;;;;4964169;28;11494;-83
2022/05/19 12:02:48;;;;;;;;;3.00;3.00;63.00;8.90;;;;;;4971098;28;11513;-82
2022/05/19 12:05:21;;;;;;;;;1.50;1.50;64.10;8.10;;;;;;4971380;28;11538;-74
2022/05/19 12:07:53;;;;;;;;;2.00;2.00;62.20;7.30;;;;;;4974929;28;11506;-75
2022/05/19 12:10:36;;;;;;;;;2.25;2.25;54.90;6.50;;;;;;4969735;28;12293;-81
2022/05/19 12:13:04;;;;;;;;;2.00;2.00;48.40;8.50;;;;;;4973091;28;11539;-75
2022/05/19 12:15:49;;;;;;;;;3.00;3.00;44.00;10.90;;;;;;4970594;28;11522;-75
2022/05/19 12:18:24;;;;;;;;;2.00;2.00;41.70;12.10;;;;;;4975492;28;11507;-76
2022/05/19 12:20:52;;;;;;;;;2.75;2.75;38.80;13.40;;;;;;4975031;28;12182;-75
2022/05/19 12:23:18;;;;;;;;;2.75;2.75;37.90;12.80;;;;;;4975041;28;11592;-73
2022/05/19 12:25:49;;;;;;;;;2.00;2.00;36.60;13.10;;;;;;4968645;28;11693;-76
2022/05/19 12:28:14;;;;;;;;;2.25;2.25;35.60;14.10;;;;;;4975389;28;8880;-74
2022/05/19 12:33:37;;;;;;;;;5.50;5.50;35.30;15.10;;;;;;4975060;28;8837;-75
2022/05/19 12:36:23;;;;;;;;;4.00;4.00;34.50;14.70;;;;;;4974874;28;11508;-74
2022/05/19 12:38:51;;;;;;;;;4.25;4.25;34.00;15.60;;;;;;4972579;28;11524;-75
2022/05/19 12:41:23;;;;;;;;;29.33;29.33;33.60;15.30;;;;;;4964527;28;12148;-76
2022/05/19 12:43:51;;;;;;;;;4.00;4.00;33.20;15.80;;;;;;4959938;28;8816;-75
2022/05/19 12:46:38;;;;;;;;;4.00;4.00;32.90;15.50;;;;;;4958346;28;11523;-76
2022/05/19 12:49:19;;;;;;;;;3.00;3.00;33.00;15.70;;;;;;4975227;28;11594;-76
2022/05/19 12:51:52;;;;;;;;;4.00;4.00;33.30;16.50;;;;;;4966707;28;11530;-74
2022/05/19 12:54:19;;;;;;;;;2.00;2.00;32.70;15.70;;;;;;4958519;28;11659;-74
2022/05/19 12:56:46;;;;;;;;;2.75;2.75;33.00;15.80;;;;;;4956000;28;11501;-75
2022/05/19 12:59:27;;;;;;;;;3.00;3.00;33.00;16.60;;;;;;4959656;28;11609;-74
2022/05/19 13:02:02;;;;;;;;;2.00;2.00;33.30;17.20;;;;;;4973699;28;11494;-75
2022/05/19 13:04:36;;;;;;;;;4.00;4.00;33.50;15.90;;;;;;4972454;28;11490;-74
2022/05/19 13:07:21;;;;;;;;;4.00;4.00;33.50;15.70;;;;;;4975941;28;11498;-75
2022/05/19 13:10:00;;;;;;;;;4.25;4.25;32.70;15.60;;;;;;4977975;28;11532;-75
2022/05/19 13:12:30;;;;;;;;;3.00;3.00;33.00;16.00;;;;;;4971175;28;11555;-75
2022/05/19 13:15:00;;;;;;;;;4.50;4.50;32.70;15.80;;;;;;4972029;28;11618;-75
2022/05/19 13:17:33;;;;;;;;;2.50;2.50;32.60;16.40;;;;;;4976612;28;12162;-75
2022/05/19 13:20:01;;;;;;;;;4.50;4.50;32.60;15.70;;;;;;4978473;28;11510;-74
2022/05/19 13:22:32;;;;;;;;;4.00;4.00;32.60;16.30;;;;;;4978341;28;11479;-77
2022/05/19 13:25:03;;;;;;;;;4.50;4.50;32.70;16.20;;;;;;4971491;28;11555;-75
2022/05/19 13:30:27;;;;;;;;;5.00;5.00;32.90;16.70;;;;;;4977720;28;11470;-77
2022/05/19 13:33:17;;;;;;;;;4.75;4.75;32.90;17.30;;;;;;4976577;28;11531;-75
2022/05/19 13:35:43;;;;;;;;;3.25;3.25;32.00;15.40;;;;;;4976916;28;11527;-77
2022/05/19 13:38:20;;;;;;;;;4.25;4.25;32.20;15.80;;;;;;4978039;28;11536;-76
2022/05/19 13:40:48;;;;;;;;;4.00;4.00;32.50;15.70;;;;;;4977284;28;8891;-75
2022/05/19 13:43:25;;;;;;;;;3.50;3.50;32.80;16.30;;;;;;4977435;28;11489;-76
2022/05/19 13:45:58;;;;;;;;;4.50;4.50;32.50;15.80;;;;;;4972195;28;11497;-76